createdAt,value
2022-10-24T00:01:38.207Z,14.30
2022-10-24T00:04:24.068Z,14.27
2022-10-24T00:07:10.506Z,14.19
2022-10-24T00:09:56.361Z,14.24
2022-10-24T00:12:44.002Z,14.11
2022-10-24T00:15:30.555Z,14.19
2022-10-24T00:18:17.048Z,14.17
2022-10-24T00:21:03.712Z,14.12
2022-10-24T00:23:49.745Z,14.14
2022-10-24T00:26:36.273Z,14.01
2022-10-24T00:29:22.221Z,14.08
2022-10-24T00:32:08.139Z,13.98
2022-10-24T00:34:53.972Z,14.01
2022-10-24T00:37:39.777Z,14.03
2022-10-24T00:40:25.762Z,13.94
2022-10-24T00:43:18.212Z,13.92
2022-10-24T00:46:04.297Z,13.95
2022-10-24T00:48:52.858Z,13.94
2022-10-24T00:51:38.590Z,13.86
2022-10-24T00:54:24.822Z,13.95
2022-10-24T00:57:28.366Z,13.83
2022-10-24T01:00:21.989Z,13.90
2022-10-24T01:03:10.908Z,13.80
2022-10-24T01:06:24.542Z,13.82
2022-10-24T01:09:16.174Z,13.72
2022-10-24T01:12:34.458Z,13.75
2022-10-24T01:15:36.952Z,13.74
2022-10-24T01:19:02.682Z,13.70
2022-10-24T01:22:18.501Z,13.67
2022-10-24T01:25:16.137Z,13.70
2022-10-24T01:28:11.360Z,13.59
2022-10-24T01:31:04.901Z,13.64
2022-10-24T01:33:56.428Z,13.60
2022-10-24T01:36:53.309Z,13.58
2022-10-24T01:40:01.725Z,13.51
2022-10-24T01:42:49.102Z,13.57
2022-10-24T01:45:36.989Z,13.56
2022-10-24T01:48:24.904Z,13.53
2022-10-24T01:51:12.041Z,13.51
2022-10-24T01:53:58.599Z,13.48
2022-10-24T01:56:44.551Z,13.50
2022-10-24T01:59:30.501Z,13.38
2022-10-24T02:02:22.269Z,13.38
2022-10-24T02:05:12.917Z,13.39
2022-10-24T02:08:04.812Z,13.38
2022-10-24T02:10:57.391Z,13.35
2022-10-24T02:13:50.966Z,13.35
2022-10-24T02:16:36.913Z,13.22
2022-10-24T02:19:22.913Z,13.23
2022-10-24T02:22:24.329Z,13.22
2022-10-24T02:25:14.376Z,13.24
2022-10-24T02:28:19.501Z,13.15
2022-10-24T02:31:16.585Z,13.16
2022-10-24T02:34:04.609Z,13.17
2022-10-24T02:36:53.396Z,13.03
2022-10-24T02:39:41.078Z,13.15
2022-10-24T02:45:20.046Z,13.12
2022-10-24T02:48:09.312Z,13.07
2022-10-24T02:50:55.556Z,13.07
2022-10-24T02:53:41.829Z,12.99
2022-10-24T02:56:28.424Z,13.06
2022-10-24T02:59:14.547Z,12.99
2022-10-24T03:02:00.470Z,13.00
2022-10-24T03:04:46.388Z,12.99
2022-10-24T03:07:32.536Z,12.95
2022-10-24T03:10:18.687Z,12.93
2022-10-24T03:13:04.854Z,12.83
2022-10-24T03:15:50.959Z,12.90
2022-10-24T03:18:36.826Z,12.85
2022-10-24T03:21:23.705Z,12.87
2022-10-24T03:24:10.130Z,12.84
2022-10-24T03:26:56.347Z,12.74
2022-10-24T03:29:42.271Z,12.84
2022-10-24T03:32:28.491Z,12.68
2022-10-24T03:35:14.610Z,12.75
2022-10-24T03:38:00.912Z,12.69
2022-10-24T03:40:47.236Z,12.72
2022-10-24T03:43:33.033Z,12.73
2022-10-24T03:46:18.847Z,12.72
2022-10-24T03:49:04.640Z,12.70
2022-10-24T03:51:50.480Z,12.67
2022-10-24T03:54:36.410Z,12.45
2022-10-24T04:00:13.249Z,12.45
2022-10-24T04:02:59.390Z,12.36
2022-10-24T04:05:45.224Z,12.43
2022-10-24T04:08:31.014Z,12.35
2022-10-24T04:11:16.932Z,12.44
2022-10-24T04:16:53.452Z,12.36
2022-10-24T04:19:39.402Z,12.44
2022-10-24T04:22:25.160Z,12.41
2022-10-24T04:25:10.964Z,12.41
2022-10-24T04:27:56.916Z,12.26
2022-10-24T04:33:36.339Z,12.32
2022-10-24T04:36:22.246Z,12.34
2022-10-24T04:39:08.072Z,12.31
2022-10-24T04:41:54.342Z,12.28
2022-10-24T04:44:40.467Z,12.27
2022-10-24T04:47:26.490Z,12.26
2022-10-24T04:50:12.241Z,12.23
2022-10-24T04:52:58.145Z,12.16
2022-10-24T04:55:44.874Z,12.20
2022-10-24T04:58:30.885Z,12.20
2022-10-24T05:01:16.828Z,12.21
2022-10-24T05:06:53.596Z,12.07
2022-10-24T05:09:39.451Z,12.13
2022-10-24T05:12:25.433Z,12.16
2022-10-24T05:15:11.661Z,12.14
2022-10-24T05:17:58.965Z,12.09
2022-10-24T05:20:44.903Z,12.10
2022-10-24T05:23:30.954Z,12.07
2022-10-24T05:26:16.821Z,12.04
2022-10-24T05:29:02.537Z,12.04
2022-10-24T05:31:48.427Z,12.08
2022-10-24T05:34:34.385Z,12.02
2022-10-24T05:37:20.250Z,12.03
2022-10-24T05:40:08.668Z,12.01
2022-10-24T05:42:54.565Z,11.88
2022-10-24T05:45:40.455Z,11.94
2022-10-24T05:48:26.269Z,11.99
2022-10-24T05:51:12.064Z,12.03
2022-10-24T05:53:58.938Z,12.02
2022-10-24T05:56:44.687Z,11.99
2022-10-24T05:59:30.476Z,12.04
2022-10-24T06:02:20.667Z,12.10
2022-10-24T06:05:08.201Z,12.13
2022-10-24T06:07:54.437Z,12.14
2022-10-24T06:10:40.208Z,12.09
2022-10-24T06:13:26.103Z,12.24
2022-10-24T06:16:12.053Z,12.22
2022-10-24T06:18:58.243Z,12.36
2022-10-24T06:21:43.977Z,12.32
2022-10-24T06:24:29.792Z,12.40
2022-10-24T06:27:15.865Z,12.49
2022-10-24T06:30:02.170Z,12.62
2022-10-24T06:32:48.128Z,12.67
2022-10-24T06:35:34.489Z,12.67
2022-10-24T06:38:20.487Z,12.71
2022-10-24T06:41:08.530Z,12.80
2022-10-24T06:43:56.422Z,12.74
2022-10-24T06:46:42.360Z,12.89
2022-10-24T06:49:28.124Z,12.89
2022-10-24T06:52:14.042Z,12.98
2022-10-24T06:55:00.035Z,12.97
2022-10-24T06:57:46.122Z,13.10
2022-10-24T07:00:33.471Z,13.20
2022-10-24T07:03:19.234Z,13.21
2022-10-24T07:09:10.247Z,13.24
2022-10-24T07:11:59.550Z,13.18
2022-10-24T07:14:45.392Z,13.25
2022-10-24T07:17:31.516Z,13.31
2022-10-24T07:20:17.902Z,13.28
2022-10-24T07:23:03.704Z,13.40
2022-10-24T07:25:49.643Z,13.42
2022-10-24T07:28:36.363Z,13.42
2022-10-24T07:31:24.573Z,13.55
2022-10-24T07:34:10.867Z,13.59
2022-10-24T07:36:56.941Z,13.68
2022-10-24T07:39:43.227Z,13.75
2022-10-24T07:42:29.185Z,13.75
2022-10-24T07:45:15.328Z,13.85
2022-10-24T07:48:01.673Z,13.91
2022-10-24T07:50:49.121Z,14.08
2022-10-24T07:53:35.712Z,14.18
2022-10-24T07:56:22.162Z,14.28
2022-10-24T07:59:09.386Z,14.40
2022-10-24T08:01:59.884Z,14.51
2022-10-24T08:04:45.796Z,14.59
2022-10-24T08:07:32.475Z,14.71
2022-10-24T08:10:18.672Z,14.76
2022-10-24T08:13:04.765Z,14.95
2022-10-24T08:15:51.078Z,14.95
2022-10-24T08:18:38.857Z,14.94
2022-10-24T08:21:26.830Z,15.10
2022-10-24T08:24:12.803Z,15.17
2022-10-24T08:26:59.681Z,15.18
2022-10-24T08:29:45.750Z,15.29
2022-10-24T08:32:31.624Z,15.49
2022-10-24T08:35:19.081Z,15.50
2022-10-24T08:38:04.824Z,15.67
2022-10-24T08:40:50.949Z,15.42
2022-10-24T08:43:37.182Z,15.64
2022-10-24T08:46:49.100Z,15.81
2022-10-24T08:49:41.896Z,15.96
2022-10-24T08:52:48.844Z,16.04
2022-10-24T08:55:48.611Z,16.17
2022-10-24T08:58:44.242Z,16.36
2022-10-24T09:01:36.333Z,16.48
2022-10-24T09:04:25.365Z,16.61
2022-10-24T09:07:21.217Z,16.75
2022-10-24T09:10:20.974Z,16.81
2022-10-24T09:13:17.300Z,16.99
2022-10-24T09:16:04.138Z,17.25
2022-10-24T09:18:53.507Z,17.39
2022-10-24T09:21:41.726Z,17.54
2022-10-24T09:24:37.987Z,17.65
2022-10-24T09:27:29.639Z,17.73
2022-10-24T09:30:19.806Z,17.88
2022-10-24T09:33:26.048Z,17.94
2022-10-24T09:36:14.642Z,18.15
2022-10-24T09:39:26.227Z,18.22
2022-10-24T09:42:22.011Z,18.32
2022-10-24T09:45:27.991Z,18.39
2022-10-24T09:48:29.290Z,18.52
2022-10-24T09:51:33.582Z,18.73
2022-10-24T09:54:19.405Z,18.88
2022-10-24T09:57:11.458Z,18.97
2022-10-24T10:00:01.585Z,19.06
2022-10-24T10:02:58.142Z,19.19
2022-10-24T10:05:55.992Z,19.33
2022-10-24T10:08:42.709Z,19.47
2022-10-24T10:11:35.163Z,19.56
2022-10-24T10:14:26.791Z,19.61
2022-10-24T10:17:21.304Z,19.73
2022-10-24T10:20:09.969Z,19.82
2022-10-24T10:22:56.100Z,19.93
2022-10-24T10:25:42.099Z,20.15
2022-10-24T10:28:27.766Z,20.30
2022-10-24T10:31:14.038Z,20.34
2022-10-24T10:33:59.759Z,20.46
2022-10-24T10:37:08.490Z,20.43
2022-10-24T10:40:00.520Z,20.69
2022-10-24T10:43:06.049Z,20.74
2022-10-24T10:46:12.100Z,20.76
2022-10-24T10:49:10.883Z,20.81
2022-10-24T10:52:06.850Z,21.01
2022-10-24T10:55:19.237Z,21.11
2022-10-24T10:58:31.918Z,21.22
2022-10-24T11:01:23.862Z,21.34
2022-10-24T11:04:41.334Z,21.29
2022-10-24T11:07:45.477Z,21.59
2022-10-24T11:10:43.302Z,21.53
2022-10-24T11:13:37.166Z,21.72
2022-10-24T11:16:26.382Z,21.81
2022-10-24T11:19:26.329Z,21.88
2022-10-24T11:22:23.124Z,22.00
2022-10-24T11:25:19.357Z,21.98
2022-10-24T11:28:37.755Z,22.07
2022-10-24T11:31:27.736Z,22.22
2022-10-24T11:34:19.523Z,22.30
2022-10-24T11:37:38.420Z,22.27
2022-10-24T11:40:25.657Z,22.43
2022-10-24T11:43:28.111Z,22.45
2022-10-24T11:46:20.796Z,22.59
2022-10-24T11:49:10.389Z,22.44
2022-10-24T11:52:01.819Z,22.72
2022-10-24T11:55:00.110Z,22.81
2022-10-24T11:57:50.102Z,22.82
2022-10-24T12:01:05.345Z,22.92
2022-10-24T12:03:57.366Z,23.08
2022-10-24T12:07:14.478Z,23.06
2022-10-24T12:10:25.542Z,23.18
2022-10-24T12:13:37.850Z,23.24
2022-10-24T12:17:05.940Z,23.30
2022-10-24T12:19:52.523Z,23.45
2022-10-24T12:22:41.519Z,23.55
2022-10-24T12:25:28.937Z,23.69
2022-10-24T12:28:23.357Z,23.77
2022-10-24T12:31:14.120Z,23.88
2022-10-24T12:34:23.093Z,23.83
2022-10-24T12:37:32.473Z,23.92
2022-10-24T12:40:46.640Z,23.96
2022-10-24T12:43:40.302Z,24.15
2022-10-24T12:46:27.272Z,24.28
2022-10-24T12:49:29.376Z,24.30
2022-10-24T12:52:30.695Z,24.42
2022-10-24T12:55:39.910Z,24.55
2022-10-24T12:58:30.211Z,24.72
2022-10-24T13:01:27.494Z,24.75
2022-10-24T13:04:58.550Z,24.93
2022-10-24T13:08:12.481Z,25.11
2022-10-24T13:11:07.692Z,25.34
2022-10-24T13:13:56.478Z,25.52
2022-10-24T13:16:59.116Z,25.51
2022-10-24T13:19:45.132Z,25.47
2022-10-24T13:22:35.504Z,25.74
2022-10-24T13:25:29.776Z,25.75
2022-10-24T13:28:24.896Z,25.98
2022-10-24T13:31:17.427Z,26.05
2022-10-24T13:34:23.184Z,26.09
2022-10-24T13:37:12.654Z,26.19
2022-10-24T13:40:09.697Z,26.29
2022-10-24T13:43:03.817Z,26.41
2022-10-24T13:45:52.782Z,26.45
2022-10-24T13:48:45.901Z,26.41
2022-10-24T13:51:35.168Z,26.42
2022-10-24T13:54:31.483Z,26.35
2022-10-24T13:57:37.510Z,26.27
2022-10-24T14:00:30.500Z,26.10
2022-10-24T14:03:19.886Z,26.15
2022-10-24T14:06:08.486Z,26.09
2022-10-24T14:09:06.580Z,25.94
2022-10-24T14:11:56.476Z,25.76
2022-10-24T14:14:42.521Z,25.77
2022-10-24T14:17:33.738Z,25.70
2022-10-24T14:20:25.677Z,25.62
2022-10-24T14:23:34.766Z,25.44
2022-10-24T14:26:21.726Z,25.44
2022-10-24T14:29:23.072Z,25.26
2022-10-24T14:32:14.606Z,25.20
2022-10-24T14:37:49.162Z,25.00
2022-10-24T14:40:35.475Z,24.88
2022-10-24T14:43:26.227Z,24.74
2022-10-24T14:46:12.394Z,24.78
2022-10-24T14:49:02.078Z,24.70
2022-10-24T14:55:03.224Z,24.52
2022-10-24T14:57:51.606Z,24.49
2022-10-24T15:00:39.393Z,24.43
2022-10-24T15:03:27.155Z,24.32
2022-10-24T15:06:28.758Z,24.22
2022-10-24T15:09:18.230Z,24.19
2022-10-24T15:12:04.453Z,24.04
2022-10-24T15:14:53.430Z,23.96
2022-10-24T15:17:39.593Z,23.92
2022-10-24T15:20:30.076Z,23.84
2022-10-24T15:23:26.885Z,23.71
2022-10-24T15:26:20.691Z,23.47
2022-10-24T15:29:13.071Z,23.38
2022-10-24T15:31:59.395Z,23.46
2022-10-24T15:34:45.335Z,23.38
2022-10-24T15:37:31.677Z,23.20
2022-10-24T15:40:21.948Z,23.12
2022-10-24T15:43:12.153Z,23.02
2022-10-24T15:45:58.150Z,22.93
2022-10-24T15:48:44.690Z,22.81
2022-10-24T15:51:31.091Z,22.73
2022-10-24T15:54:20.314Z,22.66
2022-10-24T15:57:06.461Z,22.59
2022-10-24T15:59:52.547Z,22.40
2022-10-24T16:02:42.967Z,22.40
2022-10-24T16:05:31.943Z,22.24
2022-10-24T16:08:19.834Z,22.22
2022-10-24T16:11:09.127Z,22.04
2022-10-24T16:13:57.351Z,21.98
2022-10-24T16:16:43.645Z,21.90
2022-10-24T16:19:30.111Z,21.83
2022-10-24T16:22:16.104Z,21.72
2022-10-24T16:25:02.105Z,21.63
2022-10-24T16:27:50.731Z,21.59
2022-10-24T16:30:40.427Z,21.47
2022-10-24T16:33:26.496Z,21.40
2022-10-24T16:36:12.610Z,21.20
2022-10-24T16:38:58.710Z,21.22
2022-10-24T16:41:46.341Z,21.16
2022-10-24T16:44:35.359Z,21.11
2022-10-24T16:47:21.297Z,21.04
2022-10-24T16:50:07.945Z,20.93
2022-10-24T16:52:55.324Z,20.91
2022-10-24T16:55:47.171Z,20.71
2022-10-24T16:58:33.457Z,20.69
2022-10-24T17:01:19.843Z,20.72
2022-10-24T17:04:05.952Z,20.66
2022-10-24T17:06:51.819Z,20.59
2022-10-24T17:09:37.803Z,20.49
2022-10-24T17:12:24.147Z,20.45
2022-10-24T17:15:11.461Z,20.42
2022-10-24T17:17:57.293Z,20.33
2022-10-24T17:20:44.450Z,20.24
2022-10-24T17:23:30.965Z,20.16
2022-10-24T17:26:17.380Z,19.96
2022-10-24T17:29:04.042Z,20.07
2022-10-24T17:31:50.246Z,19.89
2022-10-24T17:34:36.924Z,19.86
2022-10-24T17:37:35.222Z,19.89
2022-10-24T17:40:24.136Z,19.78
2022-10-24T17:43:25.691Z,19.75
2022-10-24T17:46:12.713Z,19.74
2022-10-24T17:48:58.934Z,19.71
2022-10-24T17:51:47.262Z,19.64
2022-10-24T17:54:33.318Z,19.57
2022-10-24T17:57:19.482Z,19.47
2022-10-24T18:00:08.442Z,19.41
2022-10-24T18:02:57.230Z,19.46
2022-10-24T18:05:43.267Z,19.44
2022-10-24T18:08:29.265Z,19.23
2022-10-24T18:11:15.035Z,19.33
2022-10-24T18:14:00.848Z,19.29
2022-10-24T18:16:46.891Z,19.15
2022-10-24T18:19:32.801Z,19.18
2022-10-24T18:22:18.853Z,19.15
2022-10-24T18:25:06.775Z,19.14
2022-10-24T18:27:52.599Z,18.93
2022-10-24T18:30:38.705Z,19.01
2022-10-24T18:33:24.787Z,18.97
2022-10-24T18:36:17.790Z,18.85
2022-10-24T18:39:04.376Z,18.93
2022-10-24T18:42:02.691Z,18.82
2022-10-24T18:44:51.028Z,18.81
2022-10-24T18:47:37.180Z,18.81
2022-10-24T18:50:24.838Z,18.75
2022-10-24T18:53:23.873Z,18.65
2022-10-24T18:56:10.288Z,18.66
2022-10-24T18:58:57.913Z,18.65
2022-10-24T19:02:02.254Z,18.60
2022-10-24T19:04:54.874Z,18.52
2022-10-24T19:07:41.132Z,18.51
2022-10-24T19:10:28.296Z,18.51
2022-10-24T19:13:14.938Z,18.40
2022-10-24T19:16:04.140Z,18.17
2022-10-24T19:18:54.928Z,18.39
2022-10-24T19:21:40.936Z,18.28
2022-10-24T19:24:27.050Z,18.33
2022-10-24T19:27:13.677Z,18.30
2022-10-24T19:29:59.647Z,18.20
2022-10-24T19:32:45.747Z,18.22
2022-10-24T19:35:31.956Z,18.08
2022-10-24T19:38:18.308Z,18.16
2022-10-24T19:41:07.878Z,18.10
2022-10-24T19:43:54.751Z,18.05
2022-10-24T19:46:40.945Z,18.07
2022-10-24T19:49:26.899Z,17.94
2022-10-24T19:52:14.773Z,17.95
2022-10-24T19:55:01.407Z,17.96
2022-10-24T19:57:48.043Z,17.95
2022-10-24T20:00:34.561Z,17.91
2022-10-24T20:03:20.726Z,17.85
2022-10-24T20:06:07.187Z,17.87
2022-10-24T20:08:53.222Z,17.84
2022-10-24T20:11:39.450Z,17.68
2022-10-24T20:14:25.399Z,17.67
2022-10-24T20:17:11.906Z,17.71
2022-10-24T20:19:58.200Z,17.73
2022-10-24T20:22:44.228Z,17.68
2022-10-24T20:25:30.403Z,17.63
2022-10-24T20:28:16.927Z,17.62
2022-10-24T20:31:03.635Z,17.58
2022-10-24T20:33:50.800Z,17.56
2022-10-24T20:36:44.415Z,17.37
2022-10-24T20:39:30.483Z,17.35
2022-10-24T20:42:16.973Z,17.37
2022-10-24T20:45:03.297Z,17.40
2022-10-24T20:47:49.419Z,17.37
2022-10-24T20:50:36.111Z,17.35
2022-10-24T20:53:22.618Z,17.24
2022-10-24T20:56:17.528Z,17.28
2022-10-24T20:59:03.960Z,17.24
2022-10-24T21:01:50.218Z,17.18
2022-10-24T21:04:36.653Z,17.08
2022-10-24T21:07:22.904Z,17.11
2022-10-24T21:10:09.121Z,17.05
2022-10-24T21:12:55.254Z,17.01
2022-10-24T21:15:41.602Z,16.97
2022-10-24T21:18:27.464Z,16.98
2022-10-24T21:21:14.609Z,16.94
2022-10-24T21:24:04.346Z,16.82
2022-10-24T21:26:53.792Z,16.88
2022-10-24T21:29:39.703Z,16.78
2022-10-24T21:32:25.557Z,16.84
2022-10-24T21:35:11.585Z,16.82
2022-10-24T21:37:57.337Z,16.79
2022-10-24T21:40:43.345Z,16.75
2022-10-24T21:43:32.108Z,16.67
2022-10-24T21:46:23.071Z,16.68
2022-10-24T21:49:09.352Z,16.55
2022-10-24T21:51:55.664Z,16.57
2022-10-24T21:54:41.619Z,16.55
2022-10-24T21:57:29.101Z,16.52
2022-10-24T22:00:15.629Z,16.43
2022-10-24T22:03:01.599Z,16.44
2022-10-24T22:05:57.284Z,16.33
2022-10-24T22:08:44.141Z,16.25
2022-10-24T22:11:31.860Z,16.07
2022-10-24T22:14:18.246Z,16.10
2022-10-24T22:17:04.285Z,16.10
2022-10-24T22:19:50.097Z,16.08
2022-10-24T22:22:36.157Z,16.07
2022-10-24T22:25:22.003Z,15.95
2022-10-24T22:28:08.114Z,16.01
2022-10-24T22:30:54.924Z,15.98
2022-10-24T22:33:42.234Z,15.96
2022-10-24T22:36:47.188Z,15.90
2022-10-24T22:39:33.619Z,15.91
2022-10-24T22:42:20.524Z,15.90
2022-10-24T22:45:07.111Z,15.85
2022-10-24T22:48:02.545Z,15.81
2022-10-24T22:50:53.998Z,15.79
2022-10-24T22:53:40.168Z,15.76
2022-10-24T22:56:33.441Z,15.75
2022-10-24T22:59:20.041Z,15.68
2022-10-24T23:02:25.485Z,15.66
2022-10-24T23:05:37.953Z,15.59
2022-10-24T23:08:38.912Z,15.57
2022-10-24T23:11:25.056Z,15.56
2022-10-24T23:14:12.275Z,15.48
2022-10-24T23:17:00.723Z,15.52
2022-10-24T23:19:46.980Z,15.51
2022-10-24T23:22:33.166Z,15.49
2022-10-24T23:25:19.669Z,15.45
2022-10-24T23:28:13.830Z,15.39
2022-10-24T23:31:00.238Z,15.33
2022-10-24T23:33:46.671Z,15.29
2022-10-24T23:36:32.812Z,15.32
2022-10-24T23:42:10.546Z,15.28
2022-10-24T23:44:56.855Z,15.20
2022-10-24T23:47:52.253Z,15.20
2022-10-24T23:51:05.515Z,15.17
2022-10-24T23:53:54.094Z,15.21
2022-10-24T23:56:40.672Z,15.18
2022-10-24T23:59:26.515Z,15.17
